KNQI/NQI METAR and TAF weather

Enter ICAO airport designator
Station Type Date Time Source
KNQI METAR 2019/08/26 07:56 UTC NOAA

KNQI 260756Z AUTO 16005KT 9SM CLR 27/25 A2978 RMK AO2 SLP080 T02670250 PNO $


Station Type Date Time Source
KNQI Decoded METAR 2019/08/26 07:56 UTC NOAA

Station name not available
Aug 26, 2019 - 03:56 AM EDT / 2019.08.26 0756 UTC
Wind: from the SSE (160 degrees) at 6 MPH (5 KT):0
Visibility: 9 mile(s):0
Sky conditions: clear
Temperature: 80.1 F (26.7 C)
Dew Point: 77.0 F (25.0 C)
Relative Humidity: 90%
Pressure (altimeter): 29.78 in. Hg (1008 hPa)
ob: KNQI 260756Z AUTO 16005KT 9SM CLR 27/25 A2978 RMK AO2 SLP080 T02670250 PNO
cycle: 8

Station Type Date Time Source
KNQI TAF 2019/08/26 07:58 UTC NOAA

TAF KNQI 2607/2707 16010KT 9999 FEW020 FEW050 QNH2970INS
BECMG 2609/2611 1810KT 9999 FEW010 BKN020 QNH2968INS
BECMG 2616/2618 16012G18KT 9999 FEW020 QNH2965INS
FM262100 16015G20KT 9999 SCT020 SCT150 BKN280 QNH2963INS
TEMPO 2621/2700 14020G30KT AUTOMATED SENSOR METWATCH 2607 TIL 2612 T26/2612Z T37/2621Z FN00204

Example: see airport list